Terminal Aerodrome Forecast
Issued by NWS Blacksburg, VA

Current Version | Previous Version | Graphics & Text | Print | Product List | Glossary On
Versions: 1 2 3 4 5 6 7 8 9 10 11 12 13 14 15 16 17 18 19 20 21 22 23 24 25 26 27 28 29 30 31 32 33 34 35 36 37
000
FTUS41 KRNK 181833 AAA
TAFBLF
TAF AMD
KBLF 181833Z 1819/1918 25011KT P6SM -RA BKN010 OVC035
      TEMPO 1819/1822 2SM SHRA SCT007 BKN020
     FM182200 24004KT 6SM -SHRA SCT015 OVC025
     FM190500 29005KT 1SM -DZ BR OVC007
      TEMPO 1909/1913 1/2SM DZ FG OVC002
     FM191400 30007KT P6SM BKN015=

USA.gov is the U.S. government's official web portal to all federal, state and local government web resources and services.